sensor_id;sensor_type;location;lat;lon;timestamp;P1;durP1;ratioP1;P2;durP2;ratioP2
12689;SDS011;6409;56.294;14.480;2022-08-01T00:01:57;9.10;;;4.80;;
12689;SDS011;6409;56.294;14.480;2022-08-01T00:04:24;8.97;;;4.43;;
12689;SDS011;6409;56.294;14.480;2022-08-01T00:06:52;13.00;;;4.77;;
12689;SDS011;6409;56.294;14.480;2022-08-01T00:09:19;10.63;;;5.17;;
12689;SDS011;6409;56.294;14.480;2022-08-01T00:11:46;8.43;;;5.07;;
12689;SDS011;6409;56.294;14.480;2022-08-01T00:14:13;12.40;;;5.50;;
12689;SDS011;6409;56.294;14.480;2022-08-01T00:16:40;14.90;;;5.13;;
12689;SDS011;6409;56.294;14.480;2022-08-01T00:19:07;10.70;;;5.03;;
12689;SDS011;6409;56.294;14.480;2022-08-01T00:21:34;9.47;;;4.60;;
12689;SDS011;6409;56.294;14.480;2022-08-01T00:24:02;20.17;;;4.87;;
12689;SDS011;6409;56.294;14.480;2022-08-01T00:26:29;16.27;;;5.10;;
12689;SDS011;6409;56.294;14.480;2022-08-01T00:28:56;14.70;;;5.07;;
12689;SDS011;6409;56.294;14.480;2022-08-01T00:31:23;15.33;;;5.23;;
12689;SDS011;6409;56.294;14.480;2022-08-01T00:33:50;16.83;;;5.17;;
12689;SDS011;6409;56.294;14.480;2022-08-01T00:36:17;18.43;;;5.83;;
12689;SDS011;6409;56.294;14.480;2022-08-01T00:38:44;9.80;;;4.90;;
12689;SDS011;6409;56.294;14.480;2022-08-01T00:41:12;13.33;;;4.17;;
12689;SDS011;6409;56.294;14.480;2022-08-01T00:43:39;5.07;;;3.80;;
12689;SDS011;6409;56.294;14.480;2022-08-01T00:46:06;17.60;;;4.77;;
12689;SDS011;6409;56.294;14.480;2022-08-01T00:48:33;11.57;;;4.63;;
12689;SDS011;6409;56.294;14.480;2022-08-01T00:51:00;4.23;;;3.43;;
12689;SDS011;6409;56.294;14.480;2022-08-01T00:53:27;7.43;;;4.47;;
12689;SDS011;6409;56.294;14.480;2022-08-01T00:55:54;9.07;;;4.13;;
12689;SDS011;6409;56.294;14.480;2022-08-01T00:58:22;10.63;;;4.43;;
12689;SDS011;6409;56.294;14.480;2022-08-01T01:00:49;9.47;;;4.87;;
12689;SDS011;6409;56.294;14.480;2022-08-01T01:03:16;19.93;;;5.13;;
12689;SDS011;6409;56.294;14.480;2022-08-01T01:05:45;6.93;;;4.40;;
12689;SDS011;6409;56.294;14.480;2022-08-01T01:08:19;6.63;;;4.00;;
12689;SDS011;6409;56.294;14.480;2022-08-01T01:10:52;6.73;;;3.90;;
12689;SDS011;6409;56.294;14.480;2022-08-01T01:13:25;7.97;;;5.07;;
12689;SDS011;6409;56.294;14.480;2022-08-01T01:15:59;6.83;;;4.40;;
12689;SDS011;6409;56.294;14.480;2022-08-01T01:18:29;19.70;;;4.90;;
12689;SDS011;6409;56.294;14.480;2022-08-01T01:21:00;9.43;;;4.90;;
12689;SDS011;6409;56.294;14.480;2022-08-01T01:23:38;9.70;;;4.87;;
12689;SDS011;6409;56.294;14.480;2022-08-01T01:29:02;7.10;;;4.30;;
12689;SDS011;6409;56.294;14.480;2022-08-01T01:31:33;18.50;;;3.97;;
12689;SDS011;6409;56.294;14.480;2022-08-01T01:34:03;7.70;;;3.80;;
12689;SDS011;6409;56.294;14.480;2022-08-01T01:36:31;5.87;;;4.40;;
12689;SDS011;6409;56.294;14.480;2022-08-01T01:38:59;5.57;;;3.97;;
12689;SDS011;6409;56.294;14.480;2022-08-01T01:41:27;7.83;;;3.53;;
12689;SDS011;6409;56.294;14.480;2022-08-01T01:43:55;8.77;;;4.97;;
12689;SDS011;6409;56.294;14.480;2022-08-01T01:46:24;6.23;;;3.93;;
12689;SDS011;6409;56.294;14.480;2022-08-01T01:48:53;7.70;;;4.53;;
12689;SDS011;6409;56.294;14.480;2022-08-01T01:51:21;6.17;;;4.10;;
12689;SDS011;6409;56.294;14.480;2022-08-01T01:53:49;5.30;;;3.73;;
12689;SDS011;6409;56.294;14.480;2022-08-01T01:56:16;6.60;;;3.90;;
12689;SDS011;6409;56.294;14.480;2022-08-01T01:58:44;9.23;;;3.93;;
12689;SDS011;6409;56.294;14.480;2022-08-01T02:01:12;18.77;;;4.90;;
12689;SDS011;6409;56.294;14.480;2022-08-01T02:03:40;10.07;;;4.57;;
12689;SDS011;6409;56.294;14.480;2022-08-01T02:06:08;9.83;;;5.47;;
12689;SDS011;6409;56.294;14.480;2022-08-01T02:08:36;8.23;;;4.67;;
12689;SDS011;6409;56.294;14.480;2022-08-01T02:11:04;8.73;;;4.37;;
12689;SDS011;6409;56.294;14.480;2022-08-01T02:13:46;9.73;;;4.50;;
12689;SDS011;6409;56.294;14.480;2022-08-01T02:16:17;9.43;;;4.73;;
12689;SDS011;6409;56.294;14.480;2022-08-01T02:18:47;9.40;;;4.30;;
12689;SDS011;6409;56.294;14.480;2022-08-01T02:21:16;7.63;;;4.73;;
12689;SDS011;6409;56.294;14.480;2022-08-01T02:24:01;9.73;;;5.33;;
12689;SDS011;6409;56.294;14.480;2022-08-01T02:26:33;10.77;;;5.60;;
12689;SDS011;6409;56.294;14.480;2022-08-01T02:29:01;10.30;;;5.10;;
12689;SDS011;6409;56.294;14.480;2022-08-01T02:31:32;8.10;;;4.87;;
12689;SDS011;6409;56.294;14.480;2022-08-01T02:34:04;6.23;;;3.73;;
12689;SDS011;6409;56.294;14.480;2022-08-01T02:36:32;4.20;;;2.93;;
12689;SDS011;6409;56.294;14.480;2022-08-01T02:39:02;6.83;;;3.07;;
12689;SDS011;6409;56.294;14.480;2022-08-01T02:41:30;6.23;;;3.27;;
12689;SDS011;6409;56.294;14.480;2022-08-01T02:43:59;3.97;;;3.10;;
12689;SDS011;6409;56.294;14.480;2022-08-01T02:46:31;7.17;;;3.20;;
12689;SDS011;6409;56.294;14.480;2022-08-01T02:49:01;4.73;;;3.40;;
12689;SDS011;6409;56.294;14.480;2022-08-01T02:51:31;4.43;;;3.00;;
12689;SDS011;6409;56.294;14.480;2022-08-01T02:53:59;14.23;;;3.50;;
12689;SDS011;6409;56.294;14.480;2022-08-01T02:56:29;5.10;;;3.50;;
12689;SDS011;6409;56.294;14.480;2022-08-01T02:59:01;6.33;;;3.27;;
12689;SDS011;6409;56.294;14.480;2022-08-01T03:01:30;4.67;;;3.30;;
12689;SDS011;6409;56.294;14.480;2022-08-01T03:03:58;6.07;;;2.97;;
12689;SDS011;6409;56.294;14.480;2022-08-01T03:06:27;4.43;;;3.03;;
12689;SDS011;6409;56.294;14.480;2022-08-01T03:08:55;7.53;;;3.00;;
12689;SDS011;6409;56.294;14.480;2022-08-01T03:11:22;3.30;;;2.90;;
12689;SDS011;6409;56.294;14.480;2022-08-01T03:13:50;5.10;;;2.27;;
12689;SDS011;6409;56.294;14.480;2022-08-01T03:16:18;12.70;;;2.87;;
12689;SDS011;6409;56.294;14.480;2022-08-01T03:18:47;4.27;;;2.90;;
12689;SDS011;6409;56.294;14.480;2022-08-01T03:21:15;9.43;;;2.77;;
12689;SDS011;6409;56.294;14.480;2022-08-01T03:23:45;4.20;;;2.63;;
12689;SDS011;6409;56.294;14.480;2022-08-01T03:26:12;3.13;;;2.23;;
12689;SDS011;6409;56.294;14.480;2022-08-01T03:28:39;4.53;;;2.30;;
12689;SDS011;6409;56.294;14.480;2022-08-01T03:31:08;8.30;;;2.37;;
12689;SDS011;6409;56.294;14.480;2022-08-01T03:33:35;3.40;;;2.77;;
12689;SDS011;6409;56.294;14.480;2022-08-01T03:36:02;14.33;;;2.83;;
12689;SDS011;6409;56.294;14.480;2022-08-01T03:38:31;2.57;;;2.07;;
12689;SDS011;6409;56.294;14.480;2022-08-01T03:41:05;3.00;;;2.37;;
12689;SDS011;6409;56.294;14.480;2022-08-01T03:43:37;6.53;;;2.50;;
12689;SDS011;6409;56.294;14.480;2022-08-01T03:46:07;9.57;;;3.00;;
12689;SDS011;6409;56.294;14.480;2022-08-01T03:48:37;7.17;;;2.50;;
12689;SDS011;6409;56.294;14.480;2022-08-01T03:51:07;17.20;;;2.40;;
12689;SDS011;6409;56.294;14.480;2022-08-01T03:53:35;6.90;;;2.50;;
12689;SDS011;6409;56.294;14.480;2022-08-01T03:56:04;3.97;;;2.27;;
12689;SDS011;6409;56.294;14.480;2022-08-01T03:58:33;8.63;;;2.40;;
12689;SDS011;6409;56.294;14.480;2022-08-01T04:01:01;2.70;;;2.07;;
12689;SDS011;6409;56.294;14.480;2022-08-01T04:03:29;4.30;;;3.17;;
12689;SDS011;6409;56.294;14.480;2022-08-01T04:05:56;26.80;;;3.00;;
12689;SDS011;6409;56.294;14.480;2022-08-01T04:08:23;8.13;;;2.83;;
12689;SDS011;6409;56.294;14.480;2022-08-01T04:11:00;9.10;;;3.17;;
12689;SDS011;6409;56.294;14.480;2022-08-01T04:13:29;6.30;;;2.40;;
12689;SDS011;6409;56.294;14.480;2022-08-01T04:15:56;12.97;;;2.50;;
12689;SDS011;6409;56.294;14.480;2022-08-01T04:18:23;9.07;;;2.70;;
12689;SDS011;6409;56.294;14.480;2022-08-01T04:20:50;6.20;;;2.40;;
12689;SDS011;6409;56.294;14.480;2022-08-01T04:23:17;14.13;;;3.23;;
12689;SDS011;6409;56.294;14.480;2022-08-01T04:25:49;4.00;;;2.30;;
12689;SDS011;6409;56.294;14.480;2022-08-01T04:28:16;3.50;;;2.70;;
12689;SDS011;6409;56.294;14.480;2022-08-01T04:30:46;5.77;;;2.63;;
12689;SDS011;6409;56.294;14.480;2022-08-01T04:33:14;9.73;;;2.93;;
12689;SDS011;6409;56.294;14.480;2022-08-01T04:35:42;12.80;;;2.73;;
12689;SDS011;6409;56.294;14.480;2022-08-01T04:38:12;15.93;;;3.93;;
12689;SDS011;6409;56.294;14.480;2022-08-01T04:40:43;13.40;;;3.23;;
12689;SDS011;6409;56.294;14.480;2022-08-01T04:43:11;5.23;;;3.20;;
12689;SDS011;6409;56.294;14.480;2022-08-01T04:45:38;43.70;;;4.53;;
12689;SDS011;6409;56.294;14.480;2022-08-01T04:48:06;8.37;;;3.50;;
12689;SDS011;6409;56.294;14.480;2022-08-01T04:50:34;3.57;;;2.67;;
12689;SDS011;6409;56.294;14.480;2022-08-01T04:53:02;12.53;;;3.57;;
12689;SDS011;6409;56.294;14.480;2022-08-01T04:55:29;8.07;;;3.70;;
12689;SDS011;6409;56.294;14.480;2022-08-01T04:57:56;9.50;;;3.77;;
12689;SDS011;6409;56.294;14.480;2022-08-01T05:00:23;11.70;;;3.47;;
12689;SDS011;6409;56.294;14.480;2022-08-01T05:02:50;9.10;;;3.10;;
12689;SDS011;6409;56.294;14.480;2022-08-01T05:05:18;3.57;;;2.63;;
12689;SDS011;6409;56.294;14.480;2022-08-01T05:07:45;9.90;;;2.90;;
12689;SDS011;6409;56.294;14.480;2022-08-01T05:10:12;6.27;;;3.00;;
12689;SDS011;6409;56.294;14.480;2022-08-01T05:12:39;27.23;;;3.77;;
12689;SDS011;6409;56.294;14.480;2022-08-01T05:15:07;4.13;;;2.73;;
12689;SDS011;6409;56.294;14.480;2022-08-01T05:17:34;5.77;;;2.77;;
12689;SDS011;6409;56.294;14.480;2022-08-01T05:20:01;24.83;;;3.27;;
12689;SDS011;6409;56.294;14.480;2022-08-01T05:22:30;4.47;;;2.80;;
12689;SDS011;6409;56.294;14.480;2022-08-01T05:24:57;3.80;;;2.27;;
12689;SDS011;6409;56.294;14.480;2022-08-01T05:27:24;4.03;;;2.50;;
12689;SDS011;6409;56.294;14.480;2022-08-01T05:29:51;2.07;;;1.87;;
12689;SDS011;6409;56.294;14.480;2022-08-01T05:32:18;2.43;;;1.90;;
12689;SDS011;6409;56.294;14.480;2022-08-01T05:34:45;2.27;;;1.90;;
12689;SDS011;6409;56.294;14.480;2022-08-01T05:37:12;3.47;;;2.13;;
12689;SDS011;6409;56.294;14.480;2022-08-01T05:39:40;3.57;;;2.20;;
12689;SDS011;6409;56.294;14.480;2022-08-01T05:42:07;2.47;;;2.17;;
12689;SDS011;6409;56.294;14.480;2022-08-01T05:44:34;4.90;;;2.57;;
12689;SDS011;6409;56.294;14.480;2022-08-01T05:47:01;2.50;;;2.13;;
12689;SDS011;6409;56.294;14.480;2022-08-01T05:49:28;2.37;;;2.00;;
12689;SDS011;6409;56.294;14.480;2022-08-01T05:51:55;3.20;;;2.27;;
12689;SDS011;6409;56.294;14.480;2022-08-01T05:54:22;2.77;;;2.00;;
12689;SDS011;6409;56.294;14.480;2022-08-01T05:56:51;2.40;;;2.20;;
12689;SDS011;6409;56.294;14.480;2022-08-01T05:59:18;2.23;;;1.80;;
12689;SDS011;6409;56.294;14.480;2022-08-01T06:01:45;3.20;;;2.10;;
12689;SDS011;6409;56.294;14.480;2022-08-01T06:04:12;2.10;;;1.90;;
12689;SDS011;6409;56.294;14.480;2022-08-01T06:06:39;2.10;;;1.90;;
12689;SDS011;6409;56.294;14.480;2022-08-01T06:09:06;2.40;;;2.03;;
12689;SDS011;6409;56.294;14.480;2022-08-01T06:11:33;3.40;;;1.87;;
12689;SDS011;6409;56.294;14.480;2022-08-01T06:14:01;2.43;;;2.10;;
12689;SDS011;6409;56.294;14.480;2022-08-01T06:16:28;2.27;;;1.97;;
12689;SDS011;6409;56.294;14.480;2022-08-01T06:18:55;2.00;;;1.70;;
12689;SDS011;6409;56.294;14.480;2022-08-01T06:21:22;2.80;;;1.73;;
12689;SDS011;6409;56.294;14.480;2022-08-01T06:23:49;2.47;;;1.93;;
12689;SDS011;6409;56.294;14.480;2022-08-01T06:26:17;2.10;;;1.83;;
12689;SDS011;6409;56.294;14.480;2022-08-01T06:28:44;2.70;;;1.70;;
12689;SDS011;6409;56.294;14.480;2022-08-01T06:31:12;2.40;;;1.90;;
12689;SDS011;6409;56.294;14.480;2022-08-01T06:33:40;4.60;;;2.07;;
12689;SDS011;6409;56.294;14.480;2022-08-01T06:36:07;2.47;;;1.73;;
12689;SDS011;6409;56.294;14.480;2022-08-01T06:38:34;3.03;;;2.00;;
12689;SDS011;6409;56.294;14.480;2022-08-01T06:41:01;2.50;;;1.90;;
12689;SDS011;6409;56.294;14.480;2022-08-01T06:43:28;2.83;;;2.00;;
12689;SDS011;6409;56.294;14.480;2022-08-01T06:45:56;3.20;;;1.73;;
12689;SDS011;6409;56.294;14.480;2022-08-01T06:48:24;2.40;;;1.77;;
12689;SDS011;6409;56.294;14.480;2022-08-01T06:50:51;1.80;;;1.70;;
12689;SDS011;6409;56.294;14.480;2022-08-01T06:53:32;2.40;;;1.90;;
12689;SDS011;6409;56.294;14.480;2022-08-01T06:55:59;2.13;;;1.90;;
12689;SDS011;6409;56.294;14.480;2022-08-01T06:58:26;5.13;;;1.60;;
12689;SDS011;6409;56.294;14.480;2022-08-01T07:00:53;1.70;;;1.60;;
12689;SDS011;6409;56.294;14.480;2022-08-01T07:03:20;3.28;;;1.80;;
12689;SDS011;6409;56.294;14.480;2022-08-01T07:05:49;2.87;;;1.90;;
12689;SDS011;6409;56.294;14.480;2022-08-01T07:08:16;1.90;;;1.73;;
12689;SDS011;6409;56.294;14.480;2022-08-01T07:10:42;2.63;;;1.70;;
12689;SDS011;6409;56.294;14.480;2022-08-01T07:13:09;1.45;;;1.30;;
12689;SDS011;6409;56.294;14.480;2022-08-01T07:15:37;1.65;;;1.55;;
12689;SDS011;6409;56.294;14.480;2022-08-01T07:18:04;1.50;;;1.40;;
12689;SDS011;6409;56.294;14.480;2022-08-01T07:20:31;1.48;;;1.38;;
12689;SDS011;6409;56.294;14.480;2022-08-01T07:22:59;4.28;;;1.40;;
12689;SDS011;6409;56.294;14.480;2022-08-01T07:25:26;1.38;;;1.27;;
12689;SDS011;6409;56.294;14.480;2022-08-01T07:27:53;4.40;;;1.38;;
12689;SDS011;6409;56.294;14.480;2022-08-01T07:30:20;1.60;;;1.50;;
12689;SDS011;6409;56.294;14.480;2022-08-01T07:32:47;3.30;;;1.48;;
12689;SDS011;6409;56.294;14.480;2022-08-01T07:35:14;4.10;;;1.70;;
12689;SDS011;6409;56.294;14.480;2022-08-01T07:37:41;7.97;;;1.40;;
12689;SDS011;6409;56.294;14.480;2022-08-01T07:40:10;1.33;;;1.23;;
12689;SDS011;6409;56.294;14.480;2022-08-01T07:42:37;1.33;;;1.23;;
12689;SDS011;6409;56.294;14.480;2022-08-01T07:45:04;1.40;;;1.30;;
12689;SDS011;6409;56.294;14.480;2022-08-01T07:47:31;1.40;;;1.30;;
12689;SDS011;6409;56.294;14.480;2022-08-01T07:49:59;1.48;;;1.38;;
12689;SDS011;6409;56.294;14.480;2022-08-01T07:52:26;1.40;;;1.30;;
12689;SDS011;6409;56.294;14.480;2022-08-01T07:54:53;1.50;;;1.23;;
12689;SDS011;6409;56.294;14.480;2022-08-01T07:57:22;3.55;;;1.73;;
12689;SDS011;6409;56.294;14.480;2022-08-01T07:59:50;1.42;;;1.33;;
12689;SDS011;6409;56.294;14.480;2022-08-01T08:02:17;1.60;;;1.50;;
12689;SDS011;6409;56.294;14.480;2022-08-01T08:04:44;1.30;;;1.20;;
12689;SDS011;6409;56.294;14.480;2022-08-01T08:07:11;4.88;;;1.60;;
12689;SDS011;6409;56.294;14.480;2022-08-01T08:09:38;1.55;;;1.42;;
12689;SDS011;6409;56.294;14.480;2022-08-01T08:12:06;1.63;;;1.52;;
12689;SDS011;6409;56.294;14.480;2022-08-01T08:14:35;1.70;;;1.60;;
12689;SDS011;6409;56.294;14.480;2022-08-01T08:17:02;1.90;;;1.40;;
12689;SDS011;6409;56.294;14.480;2022-08-01T08:19:29;1.98;;;1.58;;
12689;SDS011;6409;56.294;14.480;2022-08-01T08:21:58;1.77;;;1.67;;
12689;SDS011;6409;56.294;14.480;2022-08-01T08:24:25;1.85;;;1.75;;
12689;SDS011;6409;56.294;14.480;2022-08-01T08:26:53;3.17;;;1.80;;
12689;SDS011;6409;56.294;14.480;2022-08-01T08:29:21;1.90;;;1.80;;
12689;SDS011;6409;56.294;14.480;2022-08-01T08:31:50;2.00;;;1.90;;
12689;SDS011;6409;56.294;14.480;2022-08-01T08:34:17;2.22;;;2.10;;
12689;SDS011;6409;56.294;14.480;2022-08-01T08:36:45;2.92;;;2.30;;
12689;SDS011;6409;56.294;14.480;2022-08-01T08:39:11;2.30;;;2.20;;
12689;SDS011;6409;56.294;14.480;2022-08-01T08:41:38;2.35;;;2.17;;
12689;SDS011;6409;56.294;14.480;2022-08-01T08:44:06;2.30;;;2.20;;
12689;SDS011;6409;56.294;14.480;2022-08-01T08:46:33;3.40;;;2.30;;
12689;SDS011;6409;56.294;14.480;2022-08-01T08:49:08;2.75;;;2.55;;
12689;SDS011;6409;56.294;14.480;2022-08-01T08:51:38;2.35;;;2.22;;
12689;SDS011;6409;56.294;14.480;2022-08-01T08:54:07;2.50;;;2.30;;
12689;SDS011;6409;56.294;14.480;2022-08-01T08:56:34;2.30;;;2.20;;
12689;SDS011;6409;56.294;14.480;2022-08-01T08:59:02;2.28;;;2.17;;
12689;SDS011;6409;56.294;14.480;2022-08-01T09:01:30;2.05;;;1.95;;
12689;SDS011;6409;56.294;14.480;2022-08-01T09:04:00;2.28;;;2.13;;
12689;SDS011;6409;56.294;14.480;2022-08-01T09:06:29;2.28;;;2.03;;
12689;SDS011;6409;56.294;14.480;2022-08-01T09:08:56;2.10;;;2.00;;
12689;SDS011;6409;56.294;14.480;2022-08-01T09:11:23;2.20;;;2.10;;
12689;SDS011;6409;56.294;14.480;2022-08-01T09:14:07;2.10;;;2.00;;
12689;SDS011;6409;56.294;14.480;2022-08-01T09:16:35;2.15;;;1.98;;
12689;SDS011;6409;56.294;14.480;2022-08-01T09:19:06;4.10;;;2.10;;
12689;SDS011;6409;56.294;14.480;2022-08-01T09:21:36;2.05;;;1.95;;
12689;SDS011;6409;56.294;14.480;2022-08-01T09:24:12;2.03;;;1.92;;
12689;SDS011;6409;56.294;14.480;2022-08-01T09:26:40;2.03;;;1.67;;
12689;SDS011;6409;56.294;14.480;2022-08-01T09:29:07;1.90;;;1.80;;
12689;SDS011;6409;56.294;14.480;2022-08-01T09:31:39;2.00;;;1.90;;
12689;SDS011;6409;56.294;14.480;2022-08-01T09:34:07;4.00;;;1.90;;
12689;SDS011;6409;56.294;14.480;2022-08-01T09:36:47;2.00;;;1.90;;
12689;SDS011;6409;56.294;14.480;2022-08-01T09:39:17;2.15;;;2.05;;
12689;SDS011;6409;56.294;14.480;2022-08-01T09:41:45;2.15;;;1.95;;
12689;SDS011;6409;56.294;14.480;2022-08-01T09:44:12;2.45;;;2.00;;
12689;SDS011;6409;56.294;14.480;2022-08-01T09:46:49;3.35;;;1.95;;
12689;SDS011;6409;56.294;14.480;2022-08-01T09:49:26;2.50;;;2.30;;
12689;SDS011;6409;56.294;14.480;2022-08-01T09:51:56;2.10;;;2.00;;
12689;SDS011;6409;56.294;14.480;2022-08-01T09:54:27;1.88;;;1.77;;
12689;SDS011;6409;56.294;14.480;2022-08-01T09:56:55;2.20;;;2.10;;
12689;SDS011;6409;56.294;14.480;2022-08-01T09:59:34;2.97;;;1.75;;
12689;SDS011;6409;56.294;14.480;2022-08-01T10:02:02;1.95;;;1.85;;
12689;SDS011;6409;56.294;14.480;2022-08-01T10:04:30;2.30;;;1.90;;
12689;SDS011;6409;56.294;14.480;2022-08-01T10:07:04;1.90;;;1.80;;
12689;SDS011;6409;56.294;14.480;2022-08-01T10:09:32;2.20;;;2.00;;
12689;SDS011;6409;56.294;14.480;2022-08-01T10:12:00;1.80;;;1.70;;
12689;SDS011;6409;56.294;14.480;2022-08-01T10:14:28;2.00;;;1.90;;
12689;SDS011;6409;56.294;14.480;2022-08-01T10:16:56;2.00;;;1.90;;
12689;SDS011;6409;56.294;14.480;2022-08-01T10:19:24;1.60;;;1.58;;
12689;SDS011;6409;56.294;14.480;2022-08-01T10:21:53;1.98;;;1.88;;
12689;SDS011;6409;56.294;14.480;2022-08-01T10:24:22;1.90;;;1.80;;
12689;SDS011;6409;56.294;14.480;2022-08-01T10:26:51;1.87;;;1.77;;
12689;SDS011;6409;56.294;14.480;2022-08-01T10:29:21;1.70;;;1.60;;
12689;SDS011;6409;56.294;14.480;2022-08-01T10:31:49;1.73;;;1.63;;
12689;SDS011;6409;56.294;14.480;2022-08-01T10:34:16;2.20;;;2.00;;
12689;SDS011;6409;56.294;14.480;2022-08-01T10:36:45;1.80;;;1.70;;
12689;SDS011;6409;56.294;14.480;2022-08-01T10:39:12;2.10;;;1.73;;
12689;SDS011;6409;56.294;14.480;2022-08-01T10:41:42;2.03;;;1.93;;
12689;SDS011;6409;56.294;14.480;2022-08-01T10:44:09;2.27;;;1.80;;
12689;SDS011;6409;56.294;14.480;2022-08-01T10:46:37;1.90;;;1.80;;
12689;SDS011;6409;56.294;14.480;2022-08-01T10:49:06;1.77;;;1.67;;
12689;SDS011;6409;56.294;14.480;2022-08-01T10:51:35;2.38;;;1.90;;
12689;SDS011;6409;56.294;14.480;2022-08-01T10:54:05;1.70;;;1.60;;
12689;SDS011;6409;56.294;14.480;2022-08-01T10:56:38;2.00;;;1.90;;
12689;SDS011;6409;56.294;14.480;2022-08-01T10:59:07;3.17;;;1.60;;
12689;SDS011;6409;56.294;14.480;2022-08-01T11:01:34;1.60;;;1.50;;
12689;SDS011;6409;56.294;14.480;2022-08-01T11:04:02;2.77;;;1.70;;
12689;SDS011;6409;56.294;14.480;2022-08-01T11:06:36;1.40;;;1.40;;
12689;SDS011;6409;56.294;14.480;2022-08-01T11:09:21;1.73;;;1.63;;
12689;SDS011;6409;56.294;14.480;2022-08-01T11:11:57;2.07;;;1.40;;
12689;SDS011;6409;56.294;14.480;2022-08-01T11:14:28;5.63;;;1.43;;
12689;SDS011;6409;56.294;14.480;2022-08-01T11:16:55;1.60;;;1.50;;
12689;SDS011;6409;56.294;14.480;2022-08-01T11:19:22;1.83;;;1.73;;
12689;SDS011;6409;56.294;14.480;2022-08-01T11:21:59;3.90;;;1.47;;
12689;SDS011;6409;56.294;14.480;2022-08-01T11:27:23;1.90;;;1.80;;
12689;SDS011;6409;56.294;14.480;2022-08-01T11:32:51;1.47;;;1.40;;
12689;SDS011;6409;56.294;14.480;2022-08-01T11:35:19;1.83;;;1.73;;
12689;SDS011;6409;56.294;14.480;2022-08-01T11:37:48;1.60;;;1.50;;
12689;SDS011;6409;56.294;14.480;2022-08-01T11:40:16;2.20;;;2.00;;
12689;SDS011;6409;56.294;14.480;2022-08-01T11:42:44;1.57;;;1.47;;
12689;SDS011;6409;56.294;14.480;2022-08-01T11:45:11;1.50;;;1.40;;
12689;SDS011;6409;56.294;14.480;2022-08-01T11:47:47;2.40;;;1.53;;
12689;SDS011;6409;56.294;14.480;2022-08-01T11:52:57;1.30;;;1.20;;
12689;SDS011;6409;56.294;14.480;2022-08-01T11:55:25;1.63;;;1.53;;
12689;SDS011;6409;56.294;14.480;2022-08-01T11:57:58;1.30;;;1.20;;
12689;SDS011;6409;56.294;14.480;2022-08-01T12:00:25;1.43;;;1.33;;
12689;SDS011;6409;56.294;14.480;2022-08-01T12:02:57;1.33;;;1.27;;
12689;SDS011;6409;56.294;14.480;2022-08-01T12:05:25;2.03;;;1.50;;
12689;SDS011;6409;56.294;14.480;2022-08-01T12:07:54;2.80;;;1.70;;
12689;SDS011;6409;56.294;14.480;2022-08-01T12:10:22;1.33;;;1.23;;
12689;SDS011;6409;56.294;14.480;2022-08-01T12:12:52;1.77;;;1.20;;
12689;SDS011;6409;56.294;14.480;2022-08-01T12:15:20;1.27;;;1.17;;
12689;SDS011;6409;56.294;14.480;2022-08-01T12:17:49;1.17;;;1.17;;
12689;SDS011;6409;56.294;14.480;2022-08-01T12:20:20;2.23;;;1.40;;
12689;SDS011;6409;56.294;14.480;2022-08-01T12:22:52;2.20;;;1.07;;
12689;SDS011;6409;56.294;14.480;2022-08-01T12:25:20;3.90;;;1.37;;
12689;SDS011;6409;56.294;14.480;2022-08-01T12:27:47;1.40;;;1.30;;
12689;SDS011;6409;56.294;14.480;2022-08-01T12:30:14;1.30;;;1.20;;
12689;SDS011;6409;56.294;14.480;2022-08-01T12:32:43;1.20;;;1.10;;
12689;SDS011;6409;56.294;14.480;2022-08-01T12:35:12;1.57;;;1.47;;
12689;SDS011;6409;56.294;14.480;2022-08-01T12:37:42;4.97;;;1.37;;
12689;SDS011;6409;56.294;14.480;2022-08-01T12:40:13;3.43;;;1.30;;
12689;SDS011;6409;56.294;14.480;2022-08-01T12:42:42;1.60;;;1.30;;
12689;SDS011;6409;56.294;14.480;2022-08-01T12:45:10;3.97;;;1.27;;
12689;SDS011;6409;56.294;14.480;2022-08-01T12:47:39;1.60;;;1.50;;
12689;SDS011;6409;56.294;14.480;2022-08-01T12:50:07;1.97;;;1.87;;
12689;SDS011;6409;56.294;14.480;2022-08-01T12:52:37;1.50;;;1.37;;
12689;SDS011;6409;56.294;14.480;2022-08-01T12:57:43;2.57;;;1.47;;
12689;SDS011;6409;56.294;14.480;2022-08-01T13:00:16;1.83;;;1.70;;
12689;SDS011;6409;56.294;14.480;2022-08-01T13:02:45;7.90;;;1.50;;
12689;SDS011;6409;56.294;14.480;2022-08-01T13:05:14;1.17;;;1.17;;
12689;SDS011;6409;56.294;14.480;2022-08-01T13:07:43;2.73;;;1.40;;
12689;SDS011;6409;56.294;14.480;2022-08-01T13:10:12;1.47;;;1.37;;
12689;SDS011;6409;56.294;14.480;2022-08-01T13:12:41;1.57;;;1.47;;
12689;SDS011;6409;56.294;14.480;2022-08-01T13:15:21;1.60;;;1.50;;
12689;SDS011;6409;56.294;14.480;2022-08-01T13:17:53;5.10;;;1.60;;
12689;SDS011;6409;56.294;14.480;2022-08-01T13:20:21;2.30;;;1.63;;
12689;SDS011;6409;56.294;14.480;2022-08-01T13:22:51;4.60;;;1.93;;
12689;SDS011;6409;56.294;14.480;2022-08-01T13:25:18;4.83;;;1.83;;
12689;SDS011;6409;56.294;14.480;2022-08-01T13:27:47;2.27;;;1.87;;
12689;SDS011;6409;56.294;14.480;2022-08-01T13:30:14;3.73;;;2.07;;
12689;SDS011;6409;56.294;14.480;2022-08-01T13:32:43;4.50;;;1.77;;
12689;SDS011;6409;56.294;14.480;2022-08-01T13:35:11;2.27;;;1.87;;
12689;SDS011;6409;56.294;14.480;2022-08-01T13:37:39;1.90;;;1.70;;
12689;SDS011;6409;56.294;14.480;2022-08-01T13:40:08;3.50;;;2.03;;
12689;SDS011;6409;56.294;14.480;2022-08-01T13:42:35;4.97;;;2.70;;
12689;SDS011;6409;56.294;14.480;2022-08-01T13:45:05;3.27;;;2.60;;
12689;SDS011;6409;56.294;14.480;2022-08-01T13:47:35;2.63;;;2.43;;
12689;SDS011;6409;56.294;14.480;2022-08-01T13:50:03;3.70;;;2.50;;
12689;SDS011;6409;56.294;14.480;2022-08-01T13:52:30;2.27;;;2.10;;
12689;SDS011;6409;56.294;14.480;2022-08-01T13:54:57;2.77;;;2.57;;
12689;SDS011;6409;56.294;14.480;2022-08-01T13:57:24;2.50;;;2.30;;
12689;SDS011;6409;56.294;14.480;2022-08-01T13:59:51;3.13;;;2.83;;
12689;SDS011;6409;56.294;14.480;2022-08-01T14:02:20;3.07;;;2.77;;
12689;SDS011;6409;56.294;14.480;2022-08-01T14:04:47;5.60;;;3.17;;
12689;SDS011;6409;56.294;14.480;2022-08-01T14:07:14;8.90;;;3.13;;
12689;SDS011;6409;56.294;14.480;2022-08-01T14:09:41;2.83;;;2.57;;
12689;SDS011;6409;56.294;14.480;2022-08-01T14:12:08;3.10;;;2.73;;
12689;SDS011;6409;56.294;14.480;2022-08-01T14:14:35;2.70;;;2.50;;
12689;SDS011;6409;56.294;14.480;2022-08-01T14:17:03;2.60;;;2.40;;
12689;SDS011;6409;56.294;14.480;2022-08-01T14:19:31;3.37;;;2.60;;
12689;SDS011;6409;56.294;14.480;2022-08-01T14:21:58;3.10;;;2.77;;
12689;SDS011;6409;56.294;14.480;2022-08-01T14:24:25;2.70;;;2.50;;
12689;SDS011;6409;56.294;14.480;2022-08-01T14:26:52;2.87;;;2.50;;
12689;SDS011;6409;56.294;14.480;2022-08-01T14:29:19;2.80;;;2.50;;
12689;SDS011;6409;56.294;14.480;2022-08-01T14:31:46;3.00;;;2.70;;
12689;SDS011;6409;56.294;14.480;2022-08-01T14:34:13;3.23;;;2.80;;
12689;SDS011;6409;56.294;14.480;2022-08-01T14:36:42;3.03;;;2.80;;
12689;SDS011;6409;56.294;14.480;2022-08-01T14:39:09;3.43;;;2.83;;
12689;SDS011;6409;56.294;14.480;2022-08-01T14:41:36;2.67;;;2.30;;
12689;SDS011;6409;56.294;14.480;2022-08-01T14:44:03;2.23;;;1.63;;
12689;SDS011;6409;56.294;14.480;2022-08-01T14:46:30;2.33;;;1.70;;
12689;SDS011;6409;56.294;14.480;2022-08-01T14:48:57;1.87;;;1.43;;
12689;SDS011;6409;56.294;14.480;2022-08-01T14:51:24;3.50;;;1.30;;
12689;SDS011;6409;56.294;14.480;2022-08-01T14:53:53;1.33;;;1.27;;
12689;SDS011;6409;56.294;14.480;2022-08-01T14:56:20;1.43;;;1.33;;
12689;SDS011;6409;56.294;14.480;2022-08-01T14:58:47;1.17;;;1.10;;
12689;SDS011;6409;56.294;14.480;2022-08-01T15:01:14;1.10;;;1.10;;
12689;SDS011;6409;56.294;14.480;2022-08-01T15:03:42;1.30;;;1.20;;
12689;SDS011;6409;56.294;14.480;2022-08-01T15:06:10;1.20;;;1.10;;
12689;SDS011;6409;56.294;14.480;2022-08-01T15:08:37;1.67;;;1.57;;